Date,TemperatureHighF,TemperatureAvgF,TemperatureLowF,DewpointHighF,DewpointAvgF,DewpointLowF,HumidityHigh,HumidityAvg,HumidityLow,PressureMaxIn,PressureMinIn,WindSpeedMaxMPH,WindSpeedAvgMPH,GustSpeedMaxMPH,PrecipitationSumIn
2014-1-1,28,-2,-18,7,-19,-34,59,44,35,30.24,29.88,0,0,0,0.00
2014-1-2,-2,-7,-12,-17,-22,-26,47,47,47,30.30,29.82,0,0,0,0.00
2014-1-3,-1,-8,-15,-16,-22,-30,47,47,47,30.09,29.65,0,0,0,0.00
2014-1-4,24,-3,-22,5,-18,-36,53,49,39,30.21,29.94,0,0,0,0.00
2014-1-5,39,15,-5,21,3,-18,87,59,33,30.09,29.91,1,0,1,0.00
2014-1-6,50,40,25,49,38,12,98,93,47,29.91,29.00,23,4,23,0.00
2014-1-7,30,15,4,11,-9,-22,73,34,25,29.79,29.12,35,9,35,0.00
2014-1-8,25,9,0,-2,-15,-24,39,32,27,30.18,29.79,15,3,15,0.00
2014-1-9,24,9,0,5,-11,-19,60,39,32,30.39,30.12,20,3,20,0.00
2014-1-10,29,13,-4,17,0,-20,82,58,45,30.39,30.06,8,2,8,0.00
2014-1-11,49,25,20,48,22,15,98,86,82,30.06,29.00,1,0,1,0.00
2014-1-12,49,42,34,48,30,16,98,66,38,29.62,28.97,0,0,0,0.00
2014-1-13,53,36,27,35,23,16,88,60,29,29.85,29.62,10,2,10,0.00
2014-1-14,47,42,36,46,40,33,98,96,91,29.71,29.35,10,2,10,0.00
2014-1-15,54,36,28,46,32,26,98,87,40,29.82,29.35,13,2,13,0.00
2014-1-16,36,33,29,36,32,28,98,97,93,29.76,29.68,9,1,9,0.00
2014-1-17,46,33,26,44,30,24,98,90,53,29.76,29.65,8,1,8,0.00
2014-1-18,26,26,26,25,25,25,93,93,93,29.74,29.44,6,1,6,0.00
2014-1-19,26,26,26,25,25,25,93,93,93,29.50,29.17,13,1,13,0.00
2014-1-20,26,26,26,25,25,25,93,93,93,29.62,29.23,19,4,19,0.00
2014-1-21,26,26,26,25,25,25,93,93,93,29.85,29.62,15,4,15,0.00
2014-1-22,26,26,26,25,25,25,93,93,93,29.79,29.38,20,8,20,0.00
2014-1-23,26,26,26,25,25,25,93,93,93,30.00,29.59,18,5,18,0.00
2014-1-24,52,16,-6,25,2,-33,93,61,18,30.12,30.00,14,3,14,0.00
2014-1-25,38,24,-5,33,11,-33,98,62,24,30.00,29.17,14,3,14,0.00
2014-1-26,31,15,4,27,-5,-23,86,44,26,29.85,29.12,25,6,25,0.00
2014-1-27,47,26,10,39,10,-18,90,53,26,29.88,29.38,30,5,30,0.00
2014-1-28,22,11,2,-9,-15,-21,34,28,23,30.21,29.88,24,4,24,0.00
2014-1-29,34,15,6,4,-12,-21,46,29,23,30.18,29.82,10,2,10,0.00
2014-1-30,36,16,4,5,-5,-18,54,39,25,30.36,30.06,10,2,10,0.00
2014-1-31,44,28,10,20,10,-3,77,49,28,30.12,29.88,9,2,9,0.00
2014-2-1,46,29,16,31,17,9,91,63,29,30.30,30.00,6,2,6,0.00
2014-2-2,40,35,31,36,32,26,98,89,80,30.00,29.79,5,0,5,0.00
2014-2-3,33,27,13,28,10,4,83,51,39,30.27,30.00,15,3,15,0.00
2014-2-4,37,19,6,18,4,-1,78,56,30,30.41,30.24,10,2,10,0.00
2014-2-5,24,20,16,15,10,4,82,66,48,30.39,29.74,11,3,11,0.00
2014-2-6,31,11,-6,7,-4,-20,70,52,31,30.21,29.88,10,2,10,0.00
2014-2-7,36,10,-10,16,-10,-25,78,41,27,30.12,30.00,17,3,17,0.00
2014-2-8,31,12,-9,3,-9,-26,54,39,28,30.18,30.06,13,3,14,0.00
2014-2-9,42,18,1,9,-2,-14,58,43,22,30.15,29.97,8,1,8,0.00
2014-2-10,31,17,-2,13,2,-19,79,52,34,30.12,29.88,14,3,14,0.00
2014-2-11,30,8,-10,5,-14,-26,55,36,25,30.33,30.12,20,5,20,0.00
2014-2-12,39,10,-8,2,-15,-28,35,31,20,30.47,30.30,11,2,11,0.00
2014-2-13,34,22,-2,33,10,-23,98,64,35,30.39,29.23,12,2,12,0.00
2014-2-14,35,31,14,35,24,4,98,79,47,29.59,28.67,25,6,25,0.00
2014-2-15,44,24,6,28,13,-3,92,65,35,29.88,29.41,14,2,14,0.00
2014-2-16,34,21,8,20,6,-8,90,53,31,29.82,29.29,28,10,28,0.00
2014-2-17,29,13,-6,-3,-10,-28,45,35,25,30.30,29.82,26,7,26,0.00
2014-2-18,34,12,-15,25,-4,-36,95,51,32,30.36,29.88,16,2,16,0.00
2014-2-19,50,30,9,32,22,5,98,75,34,30.03,29.68,12,2,12,0.00
2014-2-20,56,37,23,44,24,11,98,65,26,30.18,29.71,25,3,25,0.00
2014-2-21,36,34,31,34,31,23,93,86,66,30.21,29.59,11,1,11,0.00
2014-2-22,36,36,36,34,34,34,93,93,93,29.85,29.68,11,2,11,0.00
2014-2-23,49,34,20,34,21,13,96,62,28,29.91,29.71,7,1,7,0.00
2014-2-24,38,28,15,26,7,-7,88,43,24,29.79,29.59,26,7,26,0.00
2014-2-25,32,16,5,0,-7,-14,42,36,25,29.88,29.76,14,4,15,0.00
2014-2-26,34,14,-2,15,-4,-20,84,45,31,29.88,29.68,12,2,12,0.00
2014-2-27,41,10,-10,8,-8,-25,64,44,21,29.82,29.59,8,2,8,0.00
2014-2-28,25,13,0,0,-10,-26,53,36,24,30.41,29.65,20,6,20,0.00
2014-3-1,46,18,-6,16,-4,-32,56,38,27,30.44,30.00,12,2,12,0.00
2014-3-2,32,27,10,15,4,-10,52,38,28,30.00,29.91,13,3,13,0.00
2014-3-3,24,13,-1,-7,-13,-26,38,31,24,30.24,29.94,20,6,20,0.00
2014-3-4,38,14,-9,2,-14,-34,42,27,19,30.33,30.18,10,2,10,0.00
2014-3-5,26,13,1,1,-8,-24,56,39,27,30.44,30.24,15,4,15,0.00
2014-3-6,33,14,-4,-4,-15,-28,29,26,20,30.56,30.44,13,3,15,0.00
2014-3-7,53,20,-4,17,-2,-28,77,39,21,30.47,29.97,12,2,12,0.00
2014-3-8,56,32,12,35,13,6,90,52,22,29.97,29.65,18,4,18,0.00
2014-3-9,39,27,14,7,0,-9,54,33,22,29.88,29.76,20,5,20,0.00
2014-3-10,49,28,19,20,8,-6,71,44,24,29.85,29.65,6,2,6,0.00
2014-3-11,48,37,29,40,28,18,98,71,48,29.71,29.47,12,3,12,0.00
2014-3-12,43,31,23,34,27,20,98,84,56,29.71,29.14,17,2,17,0.00
2014-3-13,24,16,10,21,7,0,89,68,49,29.76,29.06,22,9,22,0.00
2014-3-14,50,21,-6,18,2,-15,67,48,19,30.06,29.74,10,3,10,0.00
2014-3-15,55,38,29,39,29,18,98,72,46,29.88,29.59,15,2,15,0.00
2014-3-16,33,23,8,33,-1,-18,98,37,23,30.15,29.68,30,10,30,0.00
2014-3-17,25,13,0,-7,-15,-24,31,27,22,30.15,30.00,18,4,18,0.00
2014-3-18,40,21,3,5,-7,-24,59,30,21,30.36,30.12,15,3,15,0.00
2014-3-19,54,30,9,21,10,-1,72,47,18,30.39,30.03,7,2,7,0.00
2014-3-20,47,36,31,44,32,19,98,84,59,30.09,29.44,15,2,15,0.00
2014-3-21,45,36,30,30,17,10,96,51,29,29.91,29.59,26,6,26,0.00
2014-3-22,34,34,34,13,13,13,41,41,41,29.97,29.59,14,2,14,0.00
2014-3-23,42,36,33,24,8,3,70,32,23,30.06,29.82,23,6,23,0.00
2014-3-24,36,32,0,3,3,0,24,21,24,30.09,29.94,24,7,24,0.00
2014-3-25,0,0,0,0,0,0,0,0,100,30.12,29.97,13,2,13,0.00
2014-3-26,0,0,0,0,0,0,0,0,100,30.03,29.41,36,10,36,0.00
2014-3-27,0,0,0,0,0,0,0,0,100,30.21,29.68,31,6,31,0.00
2014-3-28,0,0,0,0,0,0,0,0,100,30.18,29.85,11,2,11,0.00
2014-3-29,0,0,0,0,0,0,0,0,100,30.24,29.94,13,2,13,0.00
2014-3-30,0,0,0,0,0,0,0,0,100,30.15,29.74,18,4,18,0.00
2014-3-31,0,0,0,0,0,0,0,0,100,29.97,29.71,25,9,25,0.00
2014-4-1,0,0,0,0,0,0,0,0,100,30.09,29.94,24,6,24,0.00
2014-4-2,0,0,0,0,0,0,0,0,100,30.09,30.06,6,1,6,0.00
2014-4-8,0,0,0,0,0,0,0,0,100,30.09,29.23,16,2,16,0.00
2014-4-9,0,0,0,0,0,0,0,0,100,29.88,29.35,24,7,24,0.00
2014-4-10,0,0,0,0,0,0,0,0,100,30.09,29.88,14,3,14,0.00
2014-4-11,0,0,0,0,0,0,0,0,100,30.00,29.82,15,3,15,0.00
2014-4-12,0,0,0,0,0,0,0,0,100,30.06,29.94,20,4,20,0.00
2014-4-13,51,40,0,49,39,0,98,91,55,30.27,30.00,4,1,10,0.00
2014-4-14,71,56,41,52,45,41,98,71,40,30.00,29.79,17,3,17,0.00
2014-4-15,61,57,47,58,55,46,98,92,75,29.88,29.53,20,5,20,0.50
2014-4-16,47,34,27,45,18,4,98,55,24,30.62,29.62,26,11,26,0.16
2014-4-17,51,35,20,18,12,5,71,42,19,30.83,30.53,11,3,11,0.34
2014-4-18,56,37,22,38,23,18,96,63,27,30.68,30.21,6,2,7,0.00
2014-4-19,54,40,27,38,25,15,98,61,30,30.36,30.06,25,6,25,0.00
2014-4-20,63,43,25,31,19,13,88,44,17,30.50,30.33,10,2,10,0.00
2014-4-21,68,53,33,38,28,22,87,41,21,30.30,29.79,12,2,12,0.00
2014-4-22,66,50,38,47,39,34,98,70,34,29.82,29.56,7,2,7,0.00
2014-4-23,60,51,41,50,36,27,98,61,41,29.50,29.38,28,8,28,0.00
2014-4-24,49,44,39,39,30,25,98,61,40,29.79,29.44,32,12,32,0.21
2014-4-25,61,49,34,37,26,16,92,48,19,29.91,29.79,22,6,22,0.00
2014-4-26,53,44,40,40,38,32,98,82,48,29.88,29.82,4,2,4,0.21
2014-4-27,52,45,38,41,35,27,98,72,40,29.97,29.82,16,4,16,0.46
2014-4-28,51,46,40,38,32,27,86,60,46,30.30,29.94,20,6,20,0.00
2014-4-29,61,46,36,31,27,22,79,51,25,30.56,30.30,15,3,15,0.46
2014-4-30,51,41,36,36,30,26,88,65,44,30.59,30.27,6,2,6,0.00
2014-5-1,51,45,39,50,44,36,98,98,88,30.27,29.65,7,1,7,0.41
2014-5-2,70,55,41,57,43,32,98,69,33,29.76,29.59,12,2,13,0.04
2014-5-3,74,52,38,46,37,28,98,64,23,29.79,29.71,9,2,9,0.00
2014-5-4,59,47,42,53,45,33,98,93,45,29.74,29.41,13,2,13,0.41
2014-5-5,62,52,44,46,38,26,98,64,28,29.76,29.50,15,7,15,0.41
2014-5-6,63,51,37,47,36,28,98,59,29,29.94,29.74,15,5,15,0.41
2014-5-7,68,54,39,42,32,23,94,50,20,30.15,29.94,12,3,12,0.41
2014-5-8,72,55,37,42,28,20,98,46,17,30.24,30.06,18,3,18,0.41
2014-5-9,72,51,35,42,31,23,80,51,19,30.27,30.09,6,2,6,0.41
2014-5-10,68,55,49,60,52,42,98,91,66,30.09,29.65,2,2,2,0.41
2014-5-11,74,62,50,56,37,26,98,47,18,29.97,29.65,24,6,24,0.00
2014-5-12,72,55,43,49,41,36,95,63,32,30.18,29.94,8,2,8,0.41
2014-5-13,69,51,40,42,34,0,94,61,23,30.33,30.18,9,2,9,0.00
2014-9-5,87,69,63,64,61,27,95,79,26,30.27,29.85,3,0,4,0.17
2014-9-6,96,75,63,78,68,56,98,81,40,29.85,29.65,5,0,5,20.48
2014-9-7,84,64,53,62,52,40,98,72,23,30.15,29.85,6,1,6,0.00
2014-9-8,85,60,48,57,45,33,98,67,20,30.39,30.15,3,0,3,0.00
2014-9-9,80,57,42,55,44,36,98,70,22,30.39,30.21,3,0,3,0.00
2014-9-10,84,60,46,66,50,44,98,78,26,30.21,30.00,3,0,4,0.00
2014-9-11,71,60,55,64,57,54,98,93,68,30.03,29.82,5,1,6,0.00
2014-9-14,74,57,41,60,39,36,93,55,29,30.18,29.79,8,1,8,0.00
2014-9-15,73,52,40,46,39,31,97,70,23,30.21,30.06,7,0,7,0.00
2014-9-16,66,55,48,58,51,45,98,88,60,30.09,29.88,4,0,4,0.04
2014-9-17,82,58,47,60,47,38,98,74,24,29.97,29.88,5,0,5,0.00
2014-9-18,76,55,42,61,43,28,98,69,32,30.12,29.85,7,1,7,0.00